< < Back
Terminal Aerodrome Forecast


Current Version              Previous Versions:   1  2  3  4  5  6  7  8  9  

Terminal Aerodrome Forecast

763
FTUS42 KCHS 271131
TAFCHS
TAF
KCHS 271131Z 2712/2812 01009KT P6SM BKN060
     FM271800 35008KT P6SM FEW060 SCT250
     FM280000 02005KT P6SM SCT060 BKN250=



Latest METAR

509
SAUS80 KWBC 271300
MTRCHS
METAR KCHS 271256Z 36006KT 10SM FEW010 BKN060 13/09 A2984 RMK AO2 SLP102
T01330094


USA.gov is the U.S. government's official web portal to all federal, state and local government web resources and services.